createdAt,value
2018-07-05T00:00:30.074Z,48.90
2018-07-05T00:03:09.785Z,48.80
2018-07-05T00:05:49.414Z,48.80
2018-07-05T00:08:29.326Z,48.70
2018-07-05T00:11:08.979Z,48.90
2018-07-05T00:13:48.601Z,48.80
2018-07-05T00:16:28.330Z,48.90
2018-07-05T00:19:08.016Z,49.00
2018-07-05T00:21:47.707Z,49.00
2018-07-05T00:24:27.277Z,49.00
2018-07-05T00:27:07.795Z,49.00
2018-07-05T00:29:47.516Z,49.20
2018-07-05T00:32:27.213Z,49.10
2018-07-05T00:35:06.748Z,49.00
2018-07-05T00:37:46.459Z,49.00
2018-07-05T00:40:26.179Z,49.10
2018-07-05T00:43:05.854Z,49.00
2018-07-05T00:45:45.467Z,49.00
2018-07-05T00:48:25.267Z,49.30
2018-07-05T00:51:04.923Z,49.40
2018-07-05T00:53:44.535Z,49.40
2018-07-05T00:58:57.830Z,49.40
2018-07-05T01:01:37.480Z,49.50
2018-07-05T01:04:17.158Z,49.50
2018-07-05T01:06:56.924Z,49.50
2018-07-05T01:09:36.720Z,49.60
2018-07-05T01:12:16.428Z,49.60
2018-07-05T01:14:56.200Z,49.70
2018-07-05T01:17:35.641Z,49.80
2018-07-05T01:20:15.385Z,49.70
2018-07-05T01:22:54.920Z,49.80
2018-07-05T01:25:34.472Z,49.90
2018-07-05T01:28:14.076Z,50.80
2018-07-05T01:30:53.653Z,50.10
2018-07-05T01:33:33.440Z,50.10
2018-07-05T01:36:13.110Z,50.20
2018-07-05T01:38:52.755Z,50.20
2018-07-05T01:41:32.430Z,50.20
2018-07-05T01:44:12.080Z,50.20
2018-07-05T01:46:51.682Z,50.30
2018-07-05T01:49:31.434Z,50.30
2018-07-05T01:52:12.445Z,50.40
2018-07-05T01:54:53.219Z,50.50
2018-07-05T01:57:33.365Z,50.50
2018-07-05T02:00:13.289Z,50.60
2018-07-05T02:02:53.784Z,51.20
2018-07-05T02:05:34.079Z,50.70
2018-07-05T02:08:13.723Z,50.70
2018-07-05T02:10:53.229Z,50.80
2018-07-05T02:18:40.030Z,51.10
2018-07-05T02:21:19.708Z,51.00
2018-07-05T02:26:32.951Z,51.00
2018-07-05T02:31:46.304Z,51.10
2018-07-05T02:34:25.813Z,51.10
2018-07-05T02:37:08.224Z,51.20
2018-07-05T02:39:49.002Z,51.20
2018-07-05T02:45:02.156Z,52.00
2018-07-05T02:47:41.908Z,51.50
2018-07-05T02:50:21.590Z,51.50
2018-07-05T02:53:01.159Z,51.60
2018-07-05T02:55:40.880Z,51.60
2018-07-05T02:58:20.686Z,51.70
2018-07-05T03:01:00.202Z,51.70
2018-07-05T03:03:39.879Z,51.80
2018-07-05T03:06:19.632Z,51.70
2018-07-05T03:08:59.316Z,51.80
2018-07-05T03:11:39.108Z,52.00
2018-07-05T03:14:18.691Z,51.90
2018-07-05T03:16:58.418Z,52.00
2018-07-05T03:19:38.056Z,52.10
2018-07-05T03:22:17.602Z,52.10
2018-07-05T03:24:57.233Z,52.10
2018-07-05T03:27:36.933Z,52.00
2018-07-05T03:30:16.576Z,51.90
2018-07-05T03:35:29.708Z,52.00
2018-07-05T03:38:09.399Z,52.00
2018-07-05T03:40:49.082Z,52.10
2018-07-05T03:43:28.704Z,52.10
2018-07-05T03:46:08.262Z,52.20
2018-07-05T03:48:48.043Z,52.20
2018-07-05T03:51:27.754Z,52.20
2018-07-05T03:54:07.476Z,52.20
2018-07-05T03:56:47.307Z,52.20
2018-07-05T03:59:27.026Z,52.40
2018-07-05T04:02:06.710Z,52.40
2018-07-05T04:04:46.345Z,52.40
2018-07-05T04:07:26.008Z,52.50
2018-07-05T04:10:05.800Z,52.50
2018-07-05T04:12:45.396Z,52.50
2018-07-05T04:15:25.189Z,52.50
2018-07-05T04:18:05.009Z,52.60
2018-07-05T04:23:18.191Z,52.70
2018-07-05T04:25:57.892Z,52.60
2018-07-05T04:31:11.209Z,52.80
2018-07-05T04:33:50.923Z,52.80
2018-07-05T04:36:30.651Z,52.90
2018-07-05T04:39:10.298Z,52.90
2018-07-05T04:41:49.928Z,52.90
2018-07-05T04:44:29.442Z,53.00
2018-07-05T04:47:09.701Z,53.10
2018-07-05T04:52:22.780Z,53.10
2018-07-05T04:55:02.384Z,53.10
2018-07-05T04:57:41.840Z,53.20
2018-07-05T05:00:21.388Z,53.30
2018-07-05T05:03:00.854Z,54.10
2018-07-05T05:05:40.485Z,53.50
2018-07-05T05:08:20.221Z,53.50
2018-07-05T05:10:59.826Z,53.50
2018-07-05T05:16:12.966Z,53.60
2018-07-05T05:24:00.908Z,53.90
2018-07-05T05:26:40.514Z,53.90
2018-07-05T05:29:20.160Z,53.80
2018-07-05T05:31:59.836Z,53.80
2018-07-05T05:34:39.414Z,53.60
2018-07-05T05:39:52.806Z,53.40
2018-07-05T05:42:32.638Z,53.40
2018-07-05T05:45:12.266Z,53.10
2018-07-05T05:47:51.929Z,52.90
2018-07-05T05:50:31.555Z,53.00
2018-07-05T05:53:11.239Z,52.90
2018-07-05T05:55:50.737Z,53.00
2018-07-05T05:58:30.303Z,52.80
2018-07-05T06:01:09.969Z,52.70
2018-07-05T06:03:49.670Z,52.70
2018-07-05T06:06:29.243Z,52.50
2018-07-05T06:09:08.782Z,52.50
2018-07-05T06:11:48.379Z,52.60
2018-07-05T06:14:28.072Z,52.30
2018-07-05T06:17:08.399Z,52.20
2018-07-05T06:19:48.205Z,52.30
2018-07-05T06:22:27.749Z,52.20
2018-07-05T06:25:07.283Z,52.00
2018-07-05T06:27:47.121Z,52.00
2018-07-05T06:30:26.777Z,52.10
2018-07-05T06:33:06.344Z,52.00
2018-07-05T06:35:46.139Z,52.00
2018-07-05T06:40:59.517Z,51.70
2018-07-05T06:43:39.085Z,51.50
2018-07-05T06:46:18.537Z,51.50
2018-07-05T06:48:58.111Z,51.50
2018-07-05T06:51:38.233Z,51.60
2018-07-05T06:54:17.797Z,51.40
2018-07-05T06:59:31.186Z,51.60
2018-07-05T07:02:10.805Z,51.30
2018-07-05T07:04:50.411Z,51.00
2018-07-05T07:07:29.993Z,50.90
2018-07-05T07:10:09.703Z,50.70
2018-07-05T07:12:50.271Z,50.20
2018-07-05T07:15:29.782Z,50.10
2018-07-05T07:18:09.468Z,49.90
2018-07-05T07:20:49.187Z,49.70
2018-07-05T07:23:28.935Z,49.60
2018-07-05T07:26:08.459Z,49.60
2018-07-05T07:28:48.015Z,49.50
2018-07-05T07:31:27.610Z,49.20
2018-07-05T07:34:07.160Z,49.30
2018-07-05T07:36:46.882Z,49.30
2018-07-05T07:39:26.726Z,49.10
2018-07-05T07:41:54.068Z,49.10
2018-07-05T07:44:21.387Z,48.90
2018-07-05T07:46:49.159Z,49.00
2018-07-05T07:51:44.047Z,49.20
2018-07-05T07:54:11.461Z,49.10
2018-07-05T07:56:38.770Z,49.10
2018-07-05T07:59:06.080Z,49.00
2018-07-05T08:01:33.416Z,49.10
2018-07-05T08:04:00.706Z,49.00
2018-07-05T08:06:28.077Z,48.70
2018-07-05T08:08:55.435Z,48.70
2018-07-05T08:11:22.769Z,48.60
2018-07-05T08:13:50.132Z,48.70
2018-07-05T08:16:17.403Z,48.70
2018-07-05T08:18:44.704Z,48.60
2018-07-05T08:21:12.010Z,48.50
2018-07-05T08:26:06.921Z,48.50
2018-07-05T08:28:34.211Z,48.50
2018-07-05T08:31:01.492Z,48.30
2018-07-05T08:33:28.812Z,48.50
2018-07-05T08:35:56.121Z,48.70
2018-07-05T08:38:23.420Z,48.60
2018-07-05T08:40:50.704Z,48.50
2018-07-05T08:43:17.996Z,48.60
2018-07-05T08:45:45.262Z,48.70
2018-07-05T08:48:12.568Z,48.60
2018-07-05T08:50:39.848Z,48.60
2018-07-05T08:53:07.146Z,48.60
2018-07-05T08:55:34.472Z,48.70
2018-07-05T08:58:01.750Z,48.70
2018-07-05T09:00:29.060Z,48.90
2018-07-05T09:02:56.381Z,48.70
2018-07-05T09:05:23.688Z,48.90
2018-07-05T09:07:51.047Z,48.40
2018-07-05T09:10:18.318Z,48.20
2018-07-05T09:12:45.627Z,47.90
2018-07-05T09:15:12.966Z,48.10
2018-07-05T09:18:16.090Z,46.40
2018-07-05T09:20:43.308Z,46.50
2018-07-05T09:23:10.742Z,46.30
2018-07-05T09:25:37.943Z,46.20
2018-07-05T09:28:05.279Z,45.70
2018-07-05T09:30:32.591Z,45.30
2018-07-05T09:32:59.904Z,44.70
2018-07-05T09:35:27.265Z,44.60
2018-07-05T09:37:54.646Z,44.40
2018-07-05T09:40:21.959Z,44.10
2018-07-05T09:42:49.276Z,44.10
2018-07-05T09:45:16.732Z,43.90
2018-07-05T09:47:44.774Z,43.60
2018-07-05T09:50:12.213Z,43.40
2018-07-05T09:52:39.757Z,43.60
2018-07-05T09:55:08.159Z,43.40
2018-07-05T09:57:36.783Z,43.40
2018-07-05T10:00:04.140Z,43.40
2018-07-05T10:02:31.555Z,43.70
2018-07-05T10:04:58.923Z,43.00
2018-07-05T10:07:27.341Z,42.90
2018-07-05T10:09:54.711Z,42.70
2018-07-05T10:12:22.081Z,42.00
2018-07-05T10:14:50.655Z,42.10
2018-07-05T10:17:18.050Z,41.90
2018-07-05T10:19:45.458Z,41.80
2018-07-05T10:22:13.008Z,41.70
2018-07-05T10:24:42.834Z,40.40
2018-07-05T10:27:10.352Z,39.70
2018-07-05T10:29:50.094Z,38.80
2018-07-05T10:32:29.781Z,38.50
2018-07-05T10:34:57.089Z,38.20
2018-07-05T10:37:25.310Z,37.90
2018-07-05T10:40:06.053Z,37.50
2018-07-05T10:45:20.029Z,36.80
2018-07-05T10:47:59.842Z,36.50
2018-07-05T10:50:39.532Z,36.50
2018-07-05T10:53:19.077Z,36.50
2018-07-05T10:55:58.831Z,36.40
2018-07-05T10:58:38.538Z,36.30
2018-07-05T11:01:18.087Z,35.90
2018-07-05T11:03:57.780Z,36.30
2018-07-05T11:06:37.300Z,36.40
2018-07-05T11:09:16.934Z,36.40
2018-07-05T11:11:56.659Z,36.40
2018-07-05T11:14:36.462Z,36.30
2018-07-05T11:17:16.090Z,36.70
2018-07-05T11:19:55.910Z,37.70
2018-07-05T11:22:35.558Z,37.10
2018-07-05T11:25:15.248Z,37.30
2018-07-05T11:30:28.390Z,37.40
2018-07-05T11:33:08.019Z,37.50
2018-07-05T11:38:21.374Z,37.60
2018-07-05T11:41:01.048Z,37.70
2018-07-05T11:43:40.721Z,38.00
2018-07-05T11:46:20.378Z,38.00
2018-07-05T11:51:34.170Z,38.20
2018-07-05T11:54:13.820Z,38.30
2018-07-05T11:56:53.654Z,38.50
2018-07-05T11:59:33.245Z,38.50
2018-07-05T12:02:12.746Z,38.60
2018-07-05T12:04:52.563Z,39.50
2018-07-05T12:10:05.870Z,39.20
2018-07-05T12:12:45.439Z,39.00
2018-07-05T12:15:25.121Z,39.10
2018-07-05T12:18:05.159Z,39.10
2018-07-05T12:20:44.603Z,39.10
2018-07-05T12:23:24.210Z,39.10
2018-07-05T12:26:03.881Z,39.30
2018-07-05T12:28:43.363Z,39.20
2018-07-05T12:31:22.892Z,39.20
2018-07-05T12:34:02.573Z,39.00
2018-07-05T12:36:42.207Z,39.10
2018-07-05T12:39:21.766Z,39.20
2018-07-05T12:42:01.308Z,39.40
2018-07-05T12:47:14.929Z,39.70
2018-07-05T12:49:54.727Z,39.80
2018-07-05T12:52:34.485Z,40.10
2018-07-05T12:55:14.126Z,40.20
2018-07-05T12:57:53.714Z,40.30
2018-07-05T13:00:33.368Z,40.60
2018-07-05T13:05:46.528Z,41.20
2018-07-05T13:08:26.015Z,41.50
2018-07-05T13:11:05.595Z,41.90
2018-07-05T13:13:45.264Z,41.90
2018-07-05T13:16:25.031Z,42.10
2018-07-05T13:19:04.713Z,42.40
2018-07-05T13:24:17.781Z,42.90
2018-07-05T13:26:57.305Z,43.20
2018-07-05T13:29:37.658Z,43.30
2018-07-05T13:32:17.341Z,43.60
2018-07-05T13:34:57.129Z,43.70
2018-07-05T13:37:36.808Z,43.70
2018-07-05T13:40:16.388Z,43.80
2018-07-05T13:42:56.069Z,44.00
2018-07-05T13:48:09.561Z,43.90
2018-07-05T13:50:49.276Z,43.50
2018-07-05T13:53:28.918Z,43.40
2018-07-05T13:56:08.518Z,43.50
2018-07-05T13:58:48.173Z,43.50
2018-07-05T14:01:27.698Z,43.60
2018-07-05T14:04:07.492Z,44.40
2018-07-05T14:06:47.125Z,43.80
2018-07-05T14:09:26.803Z,44.00
2018-07-05T14:12:06.689Z,43.80
2018-07-05T14:14:46.345Z,43.50
2018-07-05T14:20:03.930Z,42.30
2018-07-05T14:22:43.511Z,41.70
2018-07-05T14:25:23.160Z,41.50
2018-07-05T14:30:36.515Z,42.40
2018-07-05T14:35:49.784Z,42.00
2018-07-05T14:38:29.260Z,42.10
2018-07-05T14:41:09.029Z,42.50
2018-07-05T14:46:22.098Z,42.80
2018-07-05T14:49:01.905Z,42.50
2018-07-05T14:51:41.682Z,42.50
2018-07-05T14:54:21.426Z,42.30
2018-07-05T14:57:01.160Z,42.10
2018-07-05T14:59:40.668Z,42.30
2018-07-05T15:02:20.342Z,42.30
2018-07-05T15:05:00.025Z,42.30
2018-07-05T15:07:39.584Z,42.40
2018-07-05T15:10:19.146Z,42.50
2018-07-05T15:12:58.855Z,42.60
2018-07-05T15:15:38.392Z,42.60
2018-07-05T15:18:18.257Z,42.70
2018-07-05T15:20:57.735Z,42.80
2018-07-05T15:23:37.305Z,42.90
2018-07-05T15:26:16.878Z,42.90
2018-07-05T15:28:56.499Z,43.00
2018-07-05T15:31:36.127Z,43.10
2018-07-05T15:34:16.008Z,43.00
2018-07-05T15:36:55.691Z,43.10
2018-07-05T15:39:35.450Z,43.00
2018-07-05T15:42:15.086Z,43.00
2018-07-05T15:44:54.656Z,42.90
2018-07-05T15:47:34.337Z,42.90
2018-07-05T15:50:13.793Z,43.10
2018-07-05T15:52:53.587Z,43.10
2018-07-05T15:55:33.219Z,43.30
2018-07-05T15:58:12.765Z,43.00
2018-07-05T16:00:52.439Z,42.60
2018-07-05T16:03:31.969Z,42.50
2018-07-05T16:06:11.621Z,42.50
2018-07-05T16:08:51.165Z,42.30
2018-07-05T16:11:30.858Z,42.30
2018-07-05T16:14:10.479Z,42.30
2018-07-05T16:16:50.154Z,42.50
2018-07-05T16:19:29.625Z,42.60
2018-07-05T16:22:10.025Z,42.80
2018-07-05T16:24:49.460Z,43.10
2018-07-05T16:27:29.148Z,43.10
2018-07-05T16:30:08.717Z,43.10
2018-07-05T16:37:55.681Z,42.60
2018-07-05T16:40:35.306Z,42.60
2018-07-05T16:43:15.097Z,42.60
2018-07-05T16:45:54.805Z,42.80
2018-07-05T16:48:34.360Z,42.90
2018-07-05T16:51:13.941Z,42.90
2018-07-05T16:53:53.472Z,43.10
2018-07-05T16:56:41.563Z,43.10
2018-07-05T16:59:21.140Z,43.10
2018-07-05T17:02:00.691Z,43.20
2018-07-05T17:04:40.385Z,43.30
2018-07-05T17:07:19.948Z,43.50
2018-07-05T17:09:59.653Z,43.60
2018-07-05T17:12:39.385Z,43.70
2018-07-05T17:15:19.022Z,43.80
2018-07-05T17:17:58.586Z,43.80
2018-07-05T17:20:38.241Z,43.90
2018-07-05T17:23:18.078Z,43.90
2018-07-05T17:25:57.772Z,43.90
2018-07-05T17:28:37.415Z,43.90
2018-07-05T17:31:17.025Z,44.00
2018-07-05T17:33:56.950Z,44.00
2018-07-05T17:39:10.483Z,44.20
2018-07-05T17:41:51.071Z,44.40
2018-07-05T17:44:30.715Z,44.40
2018-07-05T17:47:10.513Z,44.50
2018-07-05T17:49:50.020Z,44.50
2018-07-05T17:52:29.733Z,44.50
2018-07-05T17:55:09.419Z,44.50
2018-07-05T17:57:49.097Z,44.60
2018-07-05T18:00:28.652Z,44.60
2018-07-05T18:05:42.146Z,44.20
2018-07-05T18:08:21.770Z,44.10
2018-07-05T18:11:01.507Z,44.10
2018-07-05T18:13:41.177Z,44.10
2018-07-05T18:16:20.939Z,44.10
2018-07-05T18:19:00.678Z,44.20
2018-07-05T18:21:40.248Z,44.10
2018-07-05T18:24:19.871Z,44.10
2018-07-05T18:26:59.439Z,44.30
2018-07-05T18:29:39.049Z,44.20
2018-07-05T18:32:18.744Z,44.40
2018-07-05T18:34:58.599Z,44.40
2018-07-05T18:37:38.211Z,44.50
2018-07-05T18:42:51.835Z,44.60
2018-07-05T18:45:31.537Z,44.70
2018-07-05T18:48:11.107Z,44.70
2018-07-05T18:50:50.834Z,44.60
2018-07-05T18:53:30.462Z,44.50
2018-07-05T18:56:10.279Z,44.70
2018-07-05T19:01:23.536Z,44.70
2018-07-05T19:04:03.035Z,44.70
2018-07-05T19:06:42.798Z,44.70
2018-07-05T19:11:56.148Z,44.70
2018-07-05T19:14:35.748Z,44.80
2018-07-05T19:17:15.440Z,44.90
2018-07-05T19:19:55.012Z,44.80
2018-07-05T19:22:34.622Z,45.00
2018-07-05T19:25:14.354Z,45.00
2018-07-05T19:30:27.970Z,45.20
2018-07-05T19:33:07.649Z,45.30
2018-07-05T19:35:47.378Z,45.40
2018-07-05T19:38:27.071Z,45.60
2018-07-05T19:41:06.919Z,45.70
2018-07-05T19:43:46.663Z,45.80
2018-07-05T19:46:26.394Z,46.00
2018-07-05T19:49:06.626Z,46.20
2018-07-05T19:51:46.314Z,46.40
2018-07-05T19:54:26.440Z,46.50
2018-07-05T19:57:06.528Z,46.80
2018-07-05T19:59:46.144Z,47.60
2018-07-05T20:02:26.017Z,48.60
2018-07-05T20:05:05.693Z,49.00
2018-07-05T20:07:45.740Z,49.70
2018-07-05T20:10:25.485Z,50.10
2018-07-05T20:13:06.062Z,50.70
2018-07-05T20:15:45.740Z,51.00
2018-07-05T20:18:25.570Z,51.40
2018-07-05T20:21:05.363Z,51.50
2018-07-05T20:23:45.134Z,51.70
2018-07-05T20:28:59.023Z,52.50
2018-07-05T20:31:38.861Z,52.50
2018-07-05T20:36:52.612Z,53.10
2018-07-05T20:39:32.467Z,53.20
2018-07-05T20:42:12.086Z,53.60
2018-07-05T20:44:51.909Z,53.50
2018-07-05T20:47:31.629Z,53.90
2018-07-05T20:50:11.419Z,54.10
2018-07-05T20:52:51.244Z,54.20
2018-07-05T20:55:31.511Z,54.30
2018-07-05T20:58:12.134Z,54.50
2018-07-05T21:00:52.289Z,54.30
2018-07-05T21:03:32.077Z,54.60
2018-07-05T21:06:12.108Z,55.00
2018-07-05T21:08:52.221Z,55.30
2018-07-05T21:11:31.925Z,55.30
2018-07-05T21:14:11.821Z,55.20
2018-07-05T21:16:51.539Z,55.40
2018-07-05T21:19:31.461Z,55.50
2018-07-05T21:22:10.975Z,55.20
2018-07-05T21:24:50.680Z,55.50
2018-07-05T21:27:30.423Z,55.70
2018-07-05T21:30:10.078Z,55.50
2018-07-05T21:32:49.686Z,55.50
2018-07-05T21:35:29.255Z,55.70
2018-07-05T21:38:08.905Z,55.70
2018-07-05T21:40:48.571Z,56.00
2018-07-05T21:43:28.328Z,56.00
2018-07-05T21:46:08.118Z,56.00
2018-07-05T21:48:47.824Z,56.00
2018-07-05T21:51:27.536Z,56.30
2018-07-05T21:54:07.644Z,56.50
2018-07-05T21:59:21.276Z,56.40
2018-07-05T22:02:00.931Z,56.60
2018-07-05T22:04:40.718Z,54.80
2018-07-05T22:07:20.274Z,56.80
2018-07-05T22:10:00.149Z,56.80
2018-07-05T22:12:39.784Z,56.90
2018-07-05T22:15:19.460Z,56.80
2018-07-05T22:18:04.649Z,56.70
2018-07-05T22:20:49.722Z,56.80
2018-07-05T22:23:34.981Z,57.00
2018-07-05T22:26:20.745Z,57.20
2018-07-05T22:29:05.928Z,57.00
2018-07-05T22:31:49.757Z,57.00
2018-07-05T22:37:03.235Z,57.30
2018-07-05T22:39:42.772Z,57.40
2018-07-05T22:42:22.327Z,57.40
2018-07-05T22:45:02.201Z,57.60
2018-07-05T22:47:42.027Z,57.60
2018-07-05T22:50:21.536Z,57.70
2018-07-05T22:53:01.137Z,57.70
2018-07-05T22:55:40.673Z,57.80
2018-07-05T22:58:20.443Z,57.90
2018-07-05T23:03:33.719Z,57.80
2018-07-05T23:06:13.579Z,57.90
2018-07-05T23:08:53.263Z,58.00
2018-07-05T23:11:32.837Z,58.20
2018-07-05T23:14:12.593Z,58.10
2018-07-05T23:16:52.175Z,58.10
2018-07-05T23:19:31.739Z,58.20
2018-07-05T23:22:11.366Z,58.30
2018-07-05T23:24:50.952Z,58.30
2018-07-05T23:27:30.523Z,58.30
2018-07-05T23:30:10.285Z,58.50
2018-07-05T23:32:49.902Z,58.60
2018-07-05T23:35:29.372Z,58.60
2018-07-05T23:38:08.925Z,58.60
2018-07-05T23:43:22.151Z,58.90
2018-07-05T23:46:01.806Z,58.70
2018-07-05T23:51:14.949Z,58.80
2018-07-05T23:56:28.279Z,58.90
2018-07-05T23:59:07.787Z,58.90
